Evia Star — SX8621 — position and weather

sailwx.info

Track history (hours):
 
Tides and Currents Weather Stations Pressure Air Temp Water Temp Dewpoint Dewpoint Depression Visibility Wind Speed Wind Dir Waves Ship Positions

Evia Star

Last reported at 2017-Nov-24 09:14 UTC. Time now 2017-Nov-24 13:12 UTC.
Position N 38°01' E 024°01'.

Length 87 m; draft 3.6 m.

Type: Ship. MMSI: 237363700.

Date/timePositionNaut miles runAvg speedWind from/ knotsBaromVisibWave heightAir tempDewpointWater temp
2017-Nov-24 09:14N 38°01' E 024°01'415.0
2017-Nov-24 09:00N 38°02' E 024°06'4 1.8
2017-Nov-24 07:03N 38°02' E 024°10'115.1
2017-Nov-24 07:00N 38°02' E 024°09'713.7
2017-Nov-24 06:30N 38°01' E 024°01'1 1.9
2017-Nov-24 05:59N 38°01' E 024°02'1014.9
2017-Nov-24 05:19N 38°02' E 024°14'4 0.3
2017-Nov-23 16:33N 38°03' E 024°19'612.9
2017-Nov-23 16:06N 38°02' E 024°12'215.2
2017-Nov-23 15:58N 38°02' E 024°09'714.5
2017-Nov-23 15:30N 38°01' E 024°01'1 1.8
2017-Nov-23 15:00N 38°01' E 024°02'14 1.8
2017-Nov-23 07:32N 38°03' E 024°19'713.7
2017-Nov-23 07:02N 38°02' E 024°10'115.3
2017-Nov-23 06:59N 38°02' E 024°09'714.5
2017-Nov-23 06:30N 38°01' E 024°01'2 4.5
2017-Nov-23 06:00N 38°01' E 024°04'814.9
2017-Nov-23 05:27N 38°02' E 024°14'  
2017-Nov-19 18:37N 38°02' E 024°17'415.0
2017-Nov-19 18:22N 38°02' E 024°12'515.0
2017-Nov-19 18:00N 38°02' E 024°05'3 6.0
2017-Nov-19 17:28N 38°01' E 024°01'1315.0
2017-Nov-19 16:36N 38°02' E 024°18'4 3.7
2017-Nov-19 15:29N 38°02' E 024°12'714.9
2017-Nov-19 15:00N 38°02' E 024°03'  
2017-Nov-17 09:13N 38°01' E 024°01'415.0
2017-Nov-17 08:56N 38°02' E 024°07'10 7.2
2017-Nov-17 07:34N 38°03' E 024°19'512.4
2017-Nov-17 07:11N 38°02' E 024°13'415.0
2017-Nov-17 06:56N 38°02' E 024°08'6 6.5
2017-Nov-17 06:04N 38°01' E 024°01'114.8
2017-Nov-17 06:01N 38°01' E 024°02'11 0.8
2017-Nov-16 16:21N 38°02' E 024°17'715.1
2017-Nov-16 15:53N 38°02' E 024°08'5 5.3
2017-Nov-16 15:00N 38°01' E 024°02'1215.0
2017-Nov-16 14:11N 38°02' E 024°18'4 0.6
2017-Nov-16 07:10N 38°02' E 024°13'415.0
2017-Nov-16 06:52N 38°02' E 024°07'5 5.5
2017-Nov-16 06:01N 38°01' E 024°01'014.7
2017-Nov-16 06:00N 38°01' E 024°02'10 0.8
2017-Nov-15 16:18N 38°02' E 024°15'0 0.0
2017-Nov-15 07:15N 38°02' E 024°14'414.4
2017-Nov-15 07:00N 38°02' E 024°10'7 7.3
2017-Nov-15 06:03N 38°01' E 024°01'012.7
2017-Nov-15 06:00N 38°01' E 024°02'815.1
2017-Nov-15 05:30N 38°02' E 024°11'6 0.5
2017-Nov-14 16:32N 38°03' E 024°19'211.6
2017-Nov-14 16:19N 38°02' E 024°16'614.9
2017-Nov-14 15:57N 38°02' E 024°09'6 7.4
2017-Nov-14 15:06N 38°01' E 024°01'114.3
2017-Nov-14 15:00N 38°01' E 024°03'  
Track history (hours):
 
Tides and Currents Weather Stations Pressure Air Temp Water Temp Dewpoint Dewpoint Depression Visibility Wind Speed Wind Dir Waves Ship Positions

Evia Star

Last reported at 2017-Nov-24 09:14 UTC. Time now 2017-Nov-24 13:12 UTC.
Position N 38°01' E 024°01'.

Length 87 m; draft 3.6 m.

Type: Ship. MMSI: 237363700.

Date/timePositionNaut miles runAvg speedWind from/ knotsBaromVisibWave heightAir tempDewpointWater temp
2017-Nov-24 09:14N 38°01' E 024°01'415.0
2017-Nov-24 09:00N 38°02' E 024°06'4 1.8
2017-Nov-24 07:03N 38°02' E 024°10'115.1
2017-Nov-24 07:00N 38°02' E 024°09'713.7
2017-Nov-24 06:30N 38°01' E 024°01'1 1.9
2017-Nov-24 05:59N 38°01' E 024°02'1014.9
2017-Nov-24 05:19N 38°02' E 024°14'4 0.3
2017-Nov-23 16:33N 38°03' E 024°19'612.9
2017-Nov-23 16:06N 38°02' E 024°12'215.2
2017-Nov-23 15:58N 38°02' E 024°09'714.5
2017-Nov-23 15:30N 38°01' E 024°01'1 1.8
2017-Nov-23 15:00N 38°01' E 024°02'14 1.8
2017-Nov-23 07:32N 38°03' E 024°19'713.7
2017-Nov-23 07:02N 38°02' E 024°10'115.3
2017-Nov-23 06:59N 38°02' E 024°09'714.5
2017-Nov-23 06:30N 38°01' E 024°01'2 4.5
2017-Nov-23 06:00N 38°01' E 024°04'814.9
2017-Nov-23 05:27N 38°02' E 024°14'  
2017-Nov-19 18:37N 38°02' E 024°17'415.0
2017-Nov-19 18:22N 38°02' E 024°12'515.0
2017-Nov-19 18:00N 38°02' E 024°05'3 6.0
2017-Nov-19 17:28N 38°01' E 024°01'1315.0
2017-Nov-19 16:36N 38°02' E 024°18'4 3.7
2017-Nov-19 15:29N 38°02' E 024°12'714.9
2017-Nov-19 15:00N 38°02' E 024°03'  
2017-Nov-17 09:13N 38°01' E 024°01'415.0
2017-Nov-17 08:56N 38°02' E 024°07'10 7.2
2017-Nov-17 07:34N 38°03' E 024°19'512.4
2017-Nov-17 07:11N 38°02' E 024°13'415.0
2017-Nov-17 06:56N 38°02' E 024°08'6 6.5
2017-Nov-17 06:04N 38°01' E 024°01'114.8
2017-Nov-17 06:01N 38°01' E 024°02'11 0.8
2017-Nov-16 16:21N 38°02' E 024°17'715.1
2017-Nov-16 15:53N 38°02' E 024°08'5 5.3
2017-Nov-16 15:00N 38°01' E 024°02'1215.0
2017-Nov-16 14:11N 38°02' E 024°18'4 0.6
2017-Nov-16 07:10N 38°02' E 024°13'415.0
2017-Nov-16 06:52N 38°02' E 024°07'5 5.5
2017-Nov-16 06:01N 38°01' E 024°01'014.7
2017-Nov-16 06:00N 38°01' E 024°02'10 0.8
2017-Nov-15 16:18N 38°02' E 024°15'0 0.0
2017-Nov-15 07:15N 38°02' E 024°14'414.4
2017-Nov-15 07:00N 38°02' E 024°10'7 7.3
2017-Nov-15 06:03N 38°01' E 024°01'012.7
2017-Nov-15 06:00N 38°01' E 024°02'815.1
2017-Nov-15 05:30N 38°02' E 024°11'6 0.5
2017-Nov-14 16:32N 38°03' E 024°19'211.6
2017-Nov-14 16:19N 38°02' E 024°16'614.9
2017-Nov-14 15:57N 38°02' E 024°09'6 7.4
2017-Nov-14 15:06N 38°01' E 024°01'114.3
2017-Nov-14 15:00N 38°01' E 024°03'  

Dump ship's entire track history